createdAt,value
2022-10-19T00:03:55.246Z,68.13
2022-10-19T00:09:00.449Z,68.17
2022-10-19T00:14:05.313Z,68.63
2022-10-19T00:19:15.882Z,68.40
2022-10-19T00:24:19.679Z,68.32
2022-10-19T00:29:23.072Z,68.17
2022-10-19T00:34:28.000Z,68.09
2022-10-19T00:39:31.311Z,67.92
2022-10-19T00:45:06.130Z,67.08
2022-10-19T00:50:14.520Z,67.57
2022-10-19T00:55:18.322Z,67.93
2022-10-19T01:00:21.754Z,67.84
2022-10-19T01:05:27.740Z,68.26
2022-10-19T01:10:43.010Z,68.10
2022-10-19T01:15:54.584Z,68.43
2022-10-19T01:21:22.308Z,68.04
2022-10-19T01:26:42.994Z,68.30
2022-10-19T01:31:51.438Z,68.50
2022-10-19T01:37:02.234Z,68.47
2022-10-19T01:42:13.077Z,68.01
2022-10-19T01:47:21.731Z,68.14
2022-10-19T01:52:28.405Z,68.47
2022-10-19T01:57:35.395Z,68.08
2022-10-19T02:02:44.919Z,67.76
2022-10-19T02:07:52.578Z,67.79
2022-10-19T02:12:57.687Z,67.74
2022-10-19T02:18:26.569Z,67.42
2022-10-19T02:23:30.332Z,67.64
2022-10-19T02:28:34.543Z,67.74
2022-10-19T02:33:39.619Z,67.59
2022-10-19T02:38:43.363Z,67.72
2022-10-19T02:43:51.409Z,67.79
2022-10-19T02:48:58.495Z,67.98
2022-10-19T02:54:04.948Z,68.10
2022-10-19T02:59:08.832Z,68.41
2022-10-19T03:04:13.559Z,69.04
2022-10-19T03:09:16.990Z,68.99
2022-10-19T03:14:20.310Z,68.96
2022-10-19T03:19:25.377Z,68.67
2022-10-19T03:24:28.892Z,68.21
2022-10-19T03:29:32.356Z,68.20
2022-10-19T03:34:37.148Z,68.73
2022-10-19T03:39:40.479Z,68.84
2022-10-19T03:44:43.823Z,68.51
2022-10-19T03:49:50.355Z,68.36
2022-10-19T03:54:53.707Z,67.87
2022-10-19T03:59:57.094Z,67.82
2022-10-19T04:05:01.841Z,67.60
2022-10-19T04:10:07.015Z,67.78
2022-10-19T04:15:11.288Z,67.60
2022-10-19T04:20:16.390Z,67.70
2022-10-19T04:25:19.964Z,67.84
2022-10-19T04:30:23.370Z,67.62
2022-10-19T04:35:28.423Z,67.77
2022-10-19T04:40:31.710Z,67.66
2022-10-19T04:45:37.071Z,68.03
2022-10-19T04:50:41.801Z,67.57
2022-10-19T04:55:45.219Z,68.11
2022-10-19T05:00:49.000Z,67.57
2022-10-19T05:05:53.766Z,67.43
2022-10-19T05:11:01.406Z,68.38
2022-10-19T05:16:06.782Z,67.58
2022-10-19T05:21:14.093Z,68.09
2022-10-19T05:26:19.051Z,67.78
2022-10-19T05:31:22.472Z,67.40
2022-10-19T05:36:29.429Z,67.81
2022-10-19T05:41:33.029Z,67.62
2022-10-19T05:46:36.376Z,67.81
2022-10-19T05:51:41.662Z,67.78
2022-10-19T05:56:45.682Z,67.69
2022-10-19T06:01:49.473Z,67.63
2022-10-19T06:06:54.475Z,67.69
2022-10-19T06:11:57.793Z,67.40
2022-10-19T06:17:01.084Z,66.74
2022-10-19T06:22:05.942Z,65.97
2022-10-19T06:27:09.126Z,65.34
2022-10-19T06:32:12.769Z,64.92
2022-10-19T06:37:17.553Z,64.69
2022-10-19T06:42:20.866Z,64.63
2022-10-19T06:47:28.353Z,64.04
2022-10-19T06:52:34.002Z,63.32
2022-10-19T06:57:37.738Z,63.65
2022-10-19T07:02:41.197Z,63.59
2022-10-19T07:07:47.007Z,63.53
2022-10-19T07:12:50.419Z,63.11
2022-10-19T07:17:54.462Z,62.78
2022-10-19T07:22:59.270Z,62.35
2022-10-19T07:28:02.318Z,62.10
2022-10-19T07:33:06.901Z,62.16
2022-10-19T07:38:11.734Z,62.37
2022-10-19T07:43:15.069Z,62.37
2022-10-19T07:48:18.356Z,62.48
2022-10-19T07:53:23.187Z,62.54
2022-10-19T07:58:26.242Z,62.75
2022-10-19T08:08:55.539Z,62.22
2022-10-19T08:19:41.549Z,60.78
2022-10-19T08:24:46.448Z,60.62
2022-10-19T08:29:49.895Z,59.41
2022-10-19T08:34:53.326Z,59.15
2022-10-19T08:39:59.795Z,59.42
2022-10-19T08:45:24.658Z,58.07
2022-10-19T08:50:34.611Z,58.76
2022-10-19T08:55:51.013Z,58.15
2022-10-19T09:01:01.611Z,59.14
2022-10-19T09:06:20.572Z,59.12
2022-10-19T09:11:28.735Z,58.90
2022-10-19T09:16:32.939Z,58.55
2022-10-19T09:21:47.362Z,58.99
2022-10-19T09:26:54.807Z,58.95
2022-10-19T09:32:01.587Z,58.54
2022-10-19T09:37:05.977Z,58.99
2022-10-19T09:42:19.169Z,58.05
2022-10-19T09:47:33.900Z,58.30
2022-10-19T09:52:38.266Z,58.46
2022-10-19T09:57:45.358Z,58.38
2022-10-19T10:02:53.167Z,58.10
2022-10-19T10:07:56.988Z,58.59
2022-10-19T10:13:03.065Z,58.10
2022-10-19T10:18:06.562Z,58.02
2022-10-19T10:23:24.889Z,57.01
2022-10-19T10:28:31.283Z,57.38
2022-10-19T10:33:46.151Z,56.48
2022-10-19T10:38:53.043Z,55.80
2022-10-19T10:44:04.702Z,54.64
2022-10-19T10:49:18.204Z,54.48
2022-10-19T10:54:24.032Z,54.15
2022-10-19T10:59:33.455Z,53.23
2022-10-19T11:04:42.394Z,53.79
2022-10-19T11:09:53.125Z,54.00
2022-10-19T11:15:05.308Z,53.66
2022-10-19T11:20:16.180Z,53.52
2022-10-19T11:25:27.650Z,53.43
2022-10-19T11:30:41.588Z,54.22
2022-10-19T11:35:53.260Z,53.35
2022-10-19T11:41:22.332Z,54.27
2022-10-19T11:46:33.383Z,53.98
2022-10-19T11:51:42.284Z,53.97
2022-10-19T11:57:02.849Z,53.11
2022-10-19T12:02:31.201Z,53.17
2022-10-19T12:07:57.638Z,52.48
2022-10-19T12:13:05.290Z,53.32
2022-10-19T12:18:17.311Z,54.27
2022-10-19T12:23:29.700Z,54.27
2022-10-19T12:28:35.292Z,54.29
2022-10-19T12:33:47.506Z,53.88
2022-10-19T12:39:02.049Z,53.85
2022-10-19T12:44:22.142Z,53.81
2022-10-19T12:49:45.652Z,53.40
2022-10-19T12:54:49.128Z,54.09
2022-10-19T13:00:19.527Z,53.72
2022-10-19T13:05:27.284Z,54.21
2022-10-19T13:10:33.260Z,54.82
2022-10-19T13:15:58.469Z,54.66
2022-10-19T13:21:03.765Z,54.98
2022-10-19T13:26:31.588Z,54.92
2022-10-19T13:31:37.825Z,55.25
2022-10-19T13:37:01.006Z,55.74
2022-10-19T13:42:04.410Z,55.69
2022-10-19T13:47:32.801Z,55.58
2022-10-19T13:53:01.488Z,55.85
2022-10-19T13:58:22.789Z,56.30
2022-10-19T14:03:38.070Z,56.35
2022-10-19T14:09:31.824Z,56.62
2022-10-19T14:14:43.217Z,57.03
2022-10-19T14:19:49.203Z,57.59
2022-10-19T14:24:53.023Z,58.04
2022-10-19T14:29:58.628Z,58.39
2022-10-19T14:35:17.476Z,59.80
2022-10-19T14:40:28.133Z,59.73
2022-10-19T14:45:33.870Z,61.07
2022-10-19T14:50:44.428Z,61.06
2022-10-19T14:55:49.084Z,61.62
2022-10-19T15:00:55.618Z,62.43
2022-10-19T15:06:02.681Z,62.51
2022-10-19T15:11:08.039Z,62.99
2022-10-19T15:16:35.314Z,63.18
2022-10-19T15:21:38.680Z,62.54
2022-10-19T15:26:42.062Z,62.71
2022-10-19T15:31:46.812Z,62.52
2022-10-19T15:36:55.869Z,62.02
2022-10-19T15:42:24.225Z,62.23
2022-10-19T15:47:29.150Z,62.66
2022-10-19T15:52:34.625Z,62.35
2022-10-19T15:57:39.988Z,62.06
2022-10-19T16:02:45.121Z,61.63
2022-10-19T16:07:48.507Z,62.14
2022-10-19T16:12:52.325Z,62.21
2022-10-19T16:17:59.408Z,62.62
2022-10-19T16:23:02.796Z,62.32
2022-10-19T16:28:06.477Z,62.09
2022-10-19T16:33:11.200Z,62.13
2022-10-19T16:38:15.465Z,62.16
2022-10-19T16:43:19.068Z,61.81
2022-10-19T16:48:24.355Z,62.26
2022-10-19T16:53:29.370Z,61.80
2022-10-19T16:58:32.968Z,61.27
2022-10-19T17:03:38.163Z,61.27
2022-10-19T17:09:23.370Z,60.92
2022-10-19T17:14:08.989Z,60.77
2022-10-19T17:19:14.329Z,61.25
2022-10-19T17:24:22.126Z,61.51
2022-10-19T17:29:26.636Z,60.97
2022-10-19T17:34:34.095Z,60.93
2022-10-19T17:39:37.367Z,60.99
2022-10-19T17:44:40.869Z,61.17
2022-10-19T17:49:46.609Z,61.14
2022-10-19T17:55:11.251Z,61.92
2022-10-19T18:00:14.579Z,61.74
2022-10-19T18:05:19.577Z,61.49
2022-10-19T18:10:22.633Z,61.49
2022-10-19T18:15:26.128Z,61.69
2022-10-19T18:20:30.908Z,61.46
2022-10-19T18:25:53.323Z,61.00
2022-10-19T18:30:57.422Z,61.29
2022-10-19T18:36:02.236Z,61.60
2022-10-19T18:41:07.078Z,61.69
2022-10-19T18:46:11.904Z,61.59
2022-10-19T18:51:17.532Z,61.21
2022-10-19T18:56:23.142Z,61.52
2022-10-19T19:01:28.236Z,62.02
2022-10-19T19:06:35.485Z,62.39
2022-10-19T19:11:42.073Z,61.61
2022-10-19T19:16:46.683Z,61.89
2022-10-19T19:21:51.722Z,61.63
2022-10-19T19:26:55.692Z,62.07
2022-10-19T19:31:59.069Z,61.78
2022-10-19T19:37:07.331Z,61.63
2022-10-19T19:42:13.735Z,61.44
2022-10-19T19:47:19.432Z,61.39
2022-10-19T19:52:24.242Z,61.28
2022-10-19T19:57:27.339Z,61.30
2022-10-19T20:02:33.103Z,61.19
2022-10-19T20:07:38.197Z,61.22
2022-10-19T20:12:41.697Z,61.15
2022-10-19T20:17:45.436Z,61.44
2022-10-19T20:22:50.772Z,61.39
2022-10-19T20:27:54.214Z,61.27
2022-10-19T20:32:58.826Z,62.03
2022-10-19T20:38:04.348Z,61.62
2022-10-19T20:43:07.696Z,61.20
2022-10-19T20:48:11.171Z,62.23
2022-10-19T20:53:15.931Z,61.82
2022-10-19T20:58:19.049Z,60.98
2022-10-19T21:03:23.944Z,61.75
2022-10-19T21:08:28.798Z,61.44
2022-10-19T21:13:32.361Z,61.57
2022-10-19T21:18:35.733Z,61.41
2022-10-19T21:23:40.486Z,61.47
2022-10-19T21:28:48.016Z,61.18
2022-10-19T21:33:52.110Z,61.62
2022-10-19T21:38:57.689Z,61.39
2022-10-19T21:44:01.412Z,61.20
2022-10-19T21:49:05.630Z,61.63
2022-10-19T21:54:13.995Z,61.44
2022-10-19T21:59:17.979Z,61.12
2022-10-19T22:04:23.245Z,61.75
2022-10-19T22:09:28.749Z,60.93
2022-10-19T22:14:32.092Z,62.09
2022-10-19T22:19:35.397Z,61.79
2022-10-19T22:24:40.407Z,61.51
2022-10-19T22:29:43.925Z,61.63
2022-10-19T22:34:47.509Z,61.68
2022-10-19T22:39:53.009Z,61.88
2022-10-19T22:44:56.362Z,62.04
2022-10-19T22:50:00.556Z,61.60
2022-10-19T22:55:05.762Z,61.87
2022-10-19T23:00:10.458Z,61.82
2022-10-19T23:05:13.749Z,62.65
2022-10-19T23:10:18.925Z,62.76
2022-10-19T23:15:22.990Z,62.58
2022-10-19T23:20:26.402Z,62.93
2022-10-19T23:30:35.461Z,63.58
2022-10-19T23:35:38.894Z,63.59
2022-10-19T23:40:44.141Z,63.53
2022-10-19T23:45:47.459Z,62.99
2022-10-19T23:50:58.328Z,63.03
2022-10-19T23:56:03.800Z,63.44
